Time;durP1;ratioP1;P1;durP2;ratioP2;P2;SDS_P1;SDS_P2;PMS_P1;PMS_P2;Temp;Humidity;BMP_temperature;BMP_pressure;BME280_temperature;BME280_humidity;BME280_pressure;Samples;Min_cycle;Max_cycle;Signal;HPM_P1;HPM_P2
2021/11/30 00:02:24;;;;;;;2.00;1.90;;;16.80;59.10;;;;;;5024920;28;20034;-27
2021/11/30 00:04:50;;;;;;;1.80;1.70;;;16.90;59.20;;;;;;5034010;28;20053;-21
2021/11/30 00:07:16;;;;;;;2.15;1.95;;;16.90;59.80;;;;;;5029179;28;20077;-29
2021/11/30 00:12:07;;;;;;;1.48;1.38;;;16.90;59.20;;;;;;5036885;28;20041;-26
2021/11/30 00:14:35;;;;;;;1.65;1.55;;;16.90;59.50;;;;;;5039920;28;20045;-29
2021/11/30 00:17:01;;;;;;;2.10;2.00;;;16.90;60.00;;;;;;5040069;28;20148;-25
2021/11/30 00:19:26;;;;;;;2.03;1.63;;;16.90;60.80;;;;;;5043726;28;20080;-30
2021/11/30 00:21:52;;;;;;;3.35;1.73;;;16.90;61.20;;;;;;5040874;28;20034;-25
2021/11/30 00:24:18;;;;;;;3.20;1.60;;;16.90;61.70;;;;;;5037248;28;20030;-26
2021/11/30 00:26:43;;;;;;;1.60;1.50;;;16.90;61.90;;;;;;5027157;28;20037;-26
2021/11/30 00:29:09;;;;;;;2.67;1.70;;;16.90;61.90;;;;;;5032634;28;20092;-24
2021/11/30 00:31:35;;;;;;;2.72;2.03;;;16.90;61.80;;;;;;5028710;28;20510;-26
2021/11/30 00:34:00;;;;;;;1.85;1.75;;;16.90;61.70;;;;;;5031988;28;20064;-24
2021/11/30 00:36:26;;;;;;;1.80;1.52;;;16.90;61.50;;;;;;5026372;28;20069;-25
2021/11/30 00:38:51;;;;;;;5.15;1.85;;;16.90;61.40;;;;;;5032423;28;20041;-29
2021/11/30 00:41:17;;;;;;;2.55;1.50;;;16.90;61.30;;;;;;5031162;28;20535;-26
2021/11/30 00:43:43;;;;;;;2.78;1.70;;;16.90;61.10;;;;;;5037875;28;20042;-28
2021/11/30 00:46:12;;;;;;;2.33;1.80;;;16.90;61.10;;;;;;5044043;28;20052;-23
2021/11/30 00:48:38;;;;;;;1.80;1.70;;;16.80;60.90;;;;;;5031231;28;20184;-26
2021/11/30 00:51:10;;;;;;;1.80;1.70;;;16.80;60.70;;;;;;5027961;28;20042;-25
2021/11/30 00:53:36;;;;;;;2.90;1.42;;;16.90;60.70;;;;;;5030316;28;20057;-26
2021/11/30 00:56:02;;;;;;;2.92;1.70;;;16.80;60.70;;;;;;5027503;28;20041;-23
2021/11/30 00:58:27;;;;;;;2.53;1.58;;;16.90;60.70;;;;;;5028473;28;20037;-30
2021/11/30 01:00:53;;;;;;;2.20;1.40;;;16.80;60.50;;;;;;5040132;28;20411;-25
2021/11/30 01:03:18;;;;;;;1.67;1.58;;;16.90;60.50;;;;;;5038500;28;20056;-21
2021/11/30 01:05:44;;;;;;;1.67;1.58;;;16.90;60.40;;;;;;5041030;28;20049;-21
2021/11/30 01:08:10;;;;;;;2.58;1.75;;;16.80;60.40;;;;;;5043536;28;20052;-27
2021/11/30 01:10:36;;;;;;;1.90;1.80;;;16.80;60.40;;;;;;5032147;28;20128;-24
2021/11/30 01:13:02;;;;;;;1.70;1.60;;;16.80;60.40;;;;;;5037175;28;20037;-27
2021/11/30 01:15:28;;;;;;;2.25;1.45;;;16.80;60.40;;;;;;5036123;28;20048;-29
2021/11/30 01:17:53;;;;;;;1.40;1.33;;;16.80;60.40;;;;;;5034181;28;20514;-24
2021/11/30 01:20:19;;;;;;;1.75;1.65;;;16.80;60.40;;;;;;5038818;28;20126;-25
2021/11/30 01:22:45;;;;;;;1.85;1.67;;;16.80;60.40;;;;;;5040745;28;20675;-24
2021/11/30 01:25:10;;;;;;;1.55;1.30;;;16.80;60.30;;;;;;5036964;28;20050;-22
2021/11/30 01:27:36;;;;;;;1.50;1.40;;;16.80;60.30;;;;;;5032839;28;20402;-26
2021/11/30 01:30:04;;;;;;;1.52;1.42;;;16.80;60.40;;;;;;5038786;28;20048;-30
2021/11/30 01:32:29;;;;;;;1.58;1.48;;;16.80;60.40;;;;;;5043084;28;20124;-22
2021/11/30 01:34:55;;;;;;;1.35;1.25;;;16.80;60.40;;;;;;5039297;28;20066;-25
2021/11/30 01:37:21;;;;;;;1.40;1.20;;;16.80;60.40;;;;;;5036994;28;20040;-27
2021/11/30 01:39:47;;;;;;;1.63;1.52;;;16.80;60.40;;;;;;5039295;28;20037;-29
2021/11/30 01:42:14;;;;;;;1.42;1.33;;;16.80;60.40;;;;;;5043097;28;20033;-24
2021/11/30 01:44:49;;;;;;;2.38;1.30;;;16.80;60.30;;;;;;5034178;28;20063;-24
2021/11/30 01:50:00;;;;;;;1.42;1.33;;;16.80;60.40;;;;;;5041810;28;20063;-25
2021/11/30 01:52:26;;;;;;;2.40;1.20;;;16.80;60.40;;;;;;5031999;28;20037;-32
2021/11/30 01:54:52;;;;;;;1.40;1.30;;;16.80;60.30;;;;;;5041990;28;20056;-28
2021/11/30 01:57:19;;;;;;;1.88;1.52;;;16.80;60.50;;;;;;5036607;28;20034;-28
2021/11/30 01:59:45;;;;;;;1.40;1.30;;;16.80;60.90;;;;;;5032809;28;20144;-30
2021/11/30 02:02:11;;;;;;;1.38;1.27;;;16.80;60.80;;;;;;5031110;28;20057;-23
2021/11/30 02:04:37;;;;;;;1.40;1.30;;;16.80;60.90;;;;;;5029492;28;20045;-23
2021/11/30 02:07:03;;;;;;;1.58;1.48;;;16.80;61.00;;;;;;5042768;28;20048;-27
2021/11/30 02:09:29;;;;;;;1.40;1.30;;;16.80;61.10;;;;;;5036080;28;20509;-25
2021/11/30 02:11:56;;;;;;;1.35;1.27;;;16.80;61.20;;;;;;5037763;28;20040;-27
2021/11/30 02:14:21;;;;;;;1.30;1.20;;;16.80;61.20;;;;;;5037130;28;20037;-29
2021/11/30 02:16:48;;;;;;;1.50;1.40;;;16.80;61.20;;;;;;5042859;28;20536;-26
2021/11/30 02:19:14;;;;;;;1.40;1.30;;;16.80;61.50;;;;;;5039768;28;20029;-25
2021/11/30 02:21:40;;;;;;;1.88;1.45;;;16.80;61.30;;;;;;5041661;28;20064;-22
2021/11/30 02:24:07;;;;;;;1.48;1.20;;;16.80;61.30;;;;;;5046109;28;20044;-26
2021/11/30 02:26:34;;;;;;;1.65;1.20;;;16.80;61.30;;;;;;5024771;28;20141;-27
2021/11/30 02:29:01;;;;;;;1.30;1.20;;;16.80;61.20;;;;;;5036398;28;20074;-25
2021/11/30 02:31:28;;;;;;;1.30;1.20;;;16.80;61.30;;;;;;5047205;28;20090;-22
2021/11/30 02:33:54;;;;;;;1.40;1.30;;;16.80;61.30;;;;;;5037801;28;20052;-22
2021/11/30 02:36:26;;;;;;;1.27;1.17;;;16.80;61.30;;;;;;5040671;28;20053;-27
2021/11/30 02:38:52;;;;;;;1.40;1.30;;;16.70;61.20;;;;;;5049162;28;20029;-25
2021/11/30 02:41:18;;;;;;;1.30;1.20;;;16.80;61.20;;;;;;5042546;28;20116;-26
2021/11/30 02:43:43;;;;;;;1.40;1.05;;;16.70;61.20;;;;;;5043610;28;20072;-30
2021/11/30 02:46:09;;;;;;;1.00;1.00;;;16.70;61.20;;;;;;5027270;28;20053;-25
2021/11/30 02:48:34;;;;;;;1.10;0.90;;;16.70;61.20;;;;;;5039515;28;20470;-27
2021/11/30 02:51:05;;;;;;;0.85;0.85;;;16.70;61.10;;;;;;5047912;28;20108;-26
2021/11/30 02:53:31;;;;;;;1.33;1.23;;;16.70;61.20;;;;;;5039700;28;20041;-26
2021/11/30 02:55:57;;;;;;;1.10;1.05;;;16.70;61.20;;;;;;5043227;28;20046;-26
2021/11/30 02:58:22;;;;;;;1.20;1.20;;;16.70;61.10;;;;;;5042419;28;20040;-24
2021/11/30 03:00:48;;;;;;;1.48;1.38;;;16.70;61.10;;;;;;5034646;28;20052;-28
2021/11/30 03:03:14;;;;;;;0.85;0.85;;;16.70;61.10;;;;;;5028156;28;20037;-23
2021/11/30 03:05:40;;;;;;;1.80;1.15;;;16.70;61.10;;;;;;5051234;28;20112;-30
2021/11/30 03:08:05;;;;;;;0.85;0.85;;;16.70;61.10;;;;;;5049958;28;20041;-26
2021/11/30 03:10:31;;;;;;;1.17;1.08;;;16.70;61.00;;;;;;5055584;28;20416;-23
2021/11/30 03:12:57;;;;;;;0.90;0.90;;;16.70;60.90;;;;;;5054265;28;20048;-24
2021/11/30 03:15:23;;;;;;;0.95;0.90;;;16.70;60.90;;;;;;5051773;28;20041;-26
2021/11/30 03:17:49;;;;;;;0.95;0.90;;;16.70;60.90;;;;;;5050598;28;20041;-25
2021/11/30 03:20:15;;;;;;;0.90;0.90;;;16.70;61.00;;;;;;5048751;28;20052;-33
2021/11/30 03:22:41;;;;;;;0.90;0.90;;;16.80;60.90;;;;;;5048121;28;20393;-25
2021/11/30 03:25:07;;;;;;;1.05;0.95;;;16.70;60.90;;;;;;5055097;28;20029;-27
2021/11/30 03:27:34;;;;;;;1.42;1.02;;;16.70;60.80;;;;;;5055451;28;20123;-29
2021/11/30 03:30:00;;;;;;;0.90;0.90;;;16.80;60.90;;;;;;5054191;28;20072;-25
2021/11/30 03:35:12;;;;;;;0.85;0.85;;;16.70;60.80;;;;;;5031504;28;20468;-30
2021/11/30 03:37:37;;;;;;;0.70;0.70;;;16.70;60.80;;;;;;5044226;28;20482;-33
2021/11/30 03:40:04;;;;;;;0.80;0.80;;;16.70;60.80;;;;;;5014325;28;20037;-23
2021/11/30 03:42:30;;;;;;;0.80;0.80;;;16.70;60.90;;;;;;5036551;28;20038;-26
2021/11/30 03:44:56;;;;;;;1.00;1.00;;;16.70;60.90;;;;;;5038088;28;20054;-29
2021/11/30 03:47:23;;;;;;;2.38;1.17;;;16.70;60.80;;;;;;5029155;28;20049;-23
2021/11/30 03:49:48;;;;;;;0.75;0.75;;;16.70;60.90;;;;;;5046691;28;20073;-27
2021/11/30 03:52:14;;;;;;;0.68;0.68;;;16.70;60.80;;;;;;5046112;28;20065;-26
2021/11/30 03:54:40;;;;;;;0.90;0.90;;;16.70;60.70;;;;;;5033109;28;20037;-23
2021/11/30 03:57:05;;;;;;;1.05;1.05;;;16.70;60.80;;;;;;5041628;28;20037;-28
2021/11/30 03:59:31;;;;;;;0.95;0.95;;;16.70;60.70;;;;;;5036463;28;20553;-25
2021/11/30 04:01:57;;;;;;;0.68;0.68;;;16.70;60.70;;;;;;5036496;28;20032;-32
2021/11/30 04:04:30;;;;;;;0.75;0.75;;;16.70;60.60;;;;;;5039536;28;20091;-29
2021/11/30 04:06:55;;;;;;;1.10;1.00;;;16.70;60.60;;;;;;5041350;28;20034;-24
2021/11/30 04:09:22;;;;;;;1.05;1.05;;;16.70;60.60;;;;;;5026192;28;20045;-26
2021/11/30 04:11:47;;;;;;;0.70;0.70;;;16.70;60.80;;;;;;5028117;28;20033;-28
2021/11/30 04:14:13;;;;;;;1.10;1.00;;;16.70;60.60;;;;;;5029570;28;20025;-30
2021/11/30 04:16:40;;;;;;;0.70;0.70;;;16.70;60.60;;;;;;5028304;28;20068;-28
2021/11/30 04:19:06;;;;;;;0.70;0.70;;;16.70;60.60;;;;;;5046977;28;20065;-25
2021/11/30 04:21:32;;;;;;;0.80;0.80;;;16.70;60.60;;;;;;5026233;28;20069;-26
2021/11/30 04:23:57;;;;;;;0.90;0.90;;;16.70;61.30;;;;;;5048038;28;20060;-25
2021/11/30 04:26:23;;;;;;;0.73;0.73;;;16.70;60.60;;;;;;5028401;28;20049;-29
2021/11/30 04:28:49;;;;;;;1.02;1.02;;;16.70;60.50;;;;;;5041768;28;20560;-31
2021/11/30 04:31:15;;;;;;;0.70;0.70;;;16.70;60.50;;;;;;5031456;28;20069;-23
2021/11/30 04:33:40;;;;;;;0.85;0.80;;;16.70;60.50;;;;;;5034137;28;20401;-31
2021/11/30 04:36:06;;;;;;;0.68;0.68;;;16.70;60.50;;;;;;5027577;28;20040;-23
2021/11/30 04:38:33;;;;;;;0.80;0.80;;;16.70;60.50;;;;;;5034338;28;20072;-30
2021/11/30 04:40:59;;;;;;;0.80;0.80;;;16.70;60.50;;;;;;5032925;28;20041;-24
2021/11/30 04:43:25;;;;;;;0.98;0.98;;;16.70;60.50;;;;;;5026289;28;20067;-27
2021/11/30 04:46:00;;;;;;;0.73;0.73;;;16.70;60.50;;;;;;5035443;28;20114;-25
2021/11/30 04:48:26;;;;;;;0.70;0.70;;;16.70;60.40;;;;;;5035853;28;20054;-22
2021/11/30 04:50:53;;;;;;;0.70;0.70;;;16.70;60.40;;;;;;5035009;28;20056;-29
2021/11/30 04:53:25;;;;;;;0.93;0.90;;;16.70;60.40;;;;;;5036075;28;20046;-30
2021/11/30 04:55:51;;;;;;;0.80;0.80;;;16.70;61.20;;;;;;5035276;28;20049;-26
2021/11/30 04:58:17;;;;;;;0.63;0.63;;;16.70;60.40;;;;;;5041254;28;20183;-28
2021/11/30 05:00:43;;;;;;;0.80;0.80;;;16.70;60.40;;;;;;5055060;28;20053;-27
2021/11/30 05:03:09;;;;;;;0.80;0.80;;;16.70;60.40;;;;;;5055548;28;20037;-28
2021/11/30 05:05:35;;;;;;;0.90;0.90;;;16.70;60.30;;;;;;5054958;28;20052;-26
2021/11/30 05:08:00;;;;;;;0.80;0.80;;;16.70;60.40;;;;;;5055532;28;20041;-27
2021/11/30 05:10:26;;;;;;;0.75;0.63;;;16.70;60.40;;;;;;5055708;28;20075;-27
2021/11/30 05:12:52;;;;;;;0.90;0.90;;;16.70;60.40;;;;;;5044203;28;20033;-25
2021/11/30 05:15:17;;;;;;;0.93;0.82;;;16.70;60.40;;;;;;5032508;28;20044;-22
2021/11/30 05:17:43;;;;;;;0.70;0.70;;;16.70;60.40;;;;;;5041258;28;20120;-28
2021/11/30 05:20:09;;;;;;;0.90;0.90;;;16.70;60.30;;;;;;5025942;28;20045;-25
2021/11/30 05:22:35;;;;;;;0.70;0.70;;;16.70;60.30;;;;;;5027834;28;20034;-26
2021/11/30 05:25:01;;;;;;;1.00;0.90;;;16.70;60.30;;;;;;5023182;28;20052;-33
2021/11/30 05:27:27;;;;;;;0.77;0.77;;;16.70;60.30;;;;;;5039710;28;20034;-24
2021/11/30 05:29:53;;;;;;;0.80;0.80;;;16.70;60.30;;;;;;5037876;28;20041;-21
2021/11/30 05:32:19;;;;;;;0.98;0.98;;;16.70;60.20;;;;;;5040729;28;20499;-22
2021/11/30 05:34:45;;;;;;;0.60;0.60;;;16.60;60.20;;;;;;5034717;28;20726;-30
2021/11/30 05:37:12;;;;;;;1.00;0.90;;;16.70;60.30;;;;;;5035420;28;20041;-28
2021/11/30 05:39:38;;;;;;;1.10;1.00;;;16.60;60.20;;;;;;5034533;28;20190;-27
2021/11/30 05:42:04;;;;;;;0.93;0.93;;;16.70;60.50;;;;;;5035146;28;20061;-26
2021/11/30 05:44:30;;;;;;;1.13;1.02;;;16.70;60.60;;;;;;5033529;28;20069;-28
2021/11/30 05:46:55;;;;;;;0.85;0.80;;;16.70;61.00;;;;;;5030298;28;20502;-26
2021/11/30 05:49:21;;;;;;;1.00;1.00;;;16.70;61.60;;;;;;5033984;28;20046;-23
2021/11/30 05:51:46;;;;;;;1.40;1.30;;;16.70;61.70;;;;;;5033331;28;20111;-21
2021/11/30 05:54:12;;;;;;;1.23;1.20;;;16.70;62.00;;;;;;5033776;28;20049;-22
2021/11/30 05:56:40;;;;;;;0.93;0.93;;;16.70;62.50;;;;;;5033534;28;20048;-27
2021/11/30 05:59:05;;;;;;;1.20;1.20;;;16.70;62.90;;;;;;5036640;28;20537;-24
2021/11/30 06:01:33;;;;;;;1.38;1.27;;;16.70;63.10;;;;;;5048379;28;20068;-28
2021/11/30 06:04:00;;;;;;;1.80;1.70;;;16.70;63.60;;;;;;5033315;28;20372;-29
2021/11/30 06:06:30;;;;;;;3.35;1.58;;;16.70;64.70;;;;;;5030260;28;20044;-21
2021/11/30 06:08:56;;;;;;;2.17;1.98;;;16.80;64.40;;;;;;5033024;28;20413;-23
2021/11/30 06:11:21;;;;;;;2.75;1.90;;;16.70;64.30;;;;;;5040618;28;20045;-26
2021/11/30 06:13:47;;;;;;;2.22;2.03;;;16.80;64.70;;;;;;5026996;28;20057;-23
2021/11/30 06:16:13;;;;;;;1.60;1.48;;;16.80;65.30;;;;;;5040810;28;20048;-21
2021/11/30 06:18:38;;;;;;;1.90;1.60;;;16.80;65.00;;;;;;5034466;28;20132;-26
2021/11/30 06:21:04;;;;;;;1.55;1.45;;;16.80;65.20;;;;;;5027009;28;20041;-27
2021/11/30 06:23:29;;;;;;;1.77;1.60;;;16.80;65.20;;;;;;5027489;28;20052;-29
2021/11/30 06:25:55;;;;;;;3.25;1.77;;;16.80;65.20;;;;;;5025882;28;20095;-23
2021/11/30 06:28:21;;;;;;;2.10;1.58;;;16.70;65.20;;;;;;5033370;28;20101;-26
2021/11/30 06:30:46;;;;;;;2.60;1.67;;;16.80;65.20;;;;;;4992117;28;20050;-24
2021/11/30 06:33:12;;;;;;;3.20;1.65;;;16.80;65.50;;;;;;5029065;28;20053;-27
2021/11/30 06:35:38;;;;;;;2.95;1.55;;;16.80;65.00;;;;;;5033425;28;20056;-26
2021/11/30 06:38:04;;;;;;;2.10;1.60;;;16.80;65.10;;;;;;5032894;28;20129;-22
2021/11/30 06:40:30;;;;;;;3.95;1.90;;;16.80;64.90;;;;;;5034599;28;20046;-26
2021/11/30 06:42:55;;;;;;;2.08;1.60;;;16.80;64.90;;;;;;5052722;28;20109;-27
2021/11/30 06:45:21;;;;;;;2.78;1.90;;;16.80;64.90;;;;;;5049053;28;20037;-29
2021/11/30 06:47:47;;;;;;;2.45;1.75;;;16.80;64.70;;;;;;5048231;28;20190;-29
2021/11/30 06:50:12;;;;;;;4.03;1.80;;;16.80;64.60;;;;;;5053850;28;20037;-25
2021/11/30 06:52:39;;;;;;;2.22;1.60;;;16.80;64.60;;;;;;5045848;28;20091;-27
2021/11/30 06:55:08;;;;;;;5.53;1.70;;;16.80;64.60;;;;;;5049935;28;20040;-27
2021/11/30 06:57:35;;;;;;;1.90;1.42;;;16.80;64.40;;;;;;5035078;28;20390;-27
2021/11/30 07:00:04;;;;;;;2.92;1.60;;;16.80;64.40;;;;;;5018527;28;20067;-30
2021/11/30 07:02:30;;;;;;;2.53;1.50;;;16.80;64.30;;;;;;5016955;28;20050;-23
2021/11/30 07:04:58;;;;;;;1.83;1.55;;;16.80;64.20;;;;;;5033386;28;20048;-23
2021/11/30 07:07:32;;;;;;;3.47;1.40;;;16.80;64.10;;;;;;5044091;28;20474;-26
2021/11/30 07:10:10;;;;;;;1.83;1.33;;;16.70;64.10;;;;;;5028854;28;20061;-25
2021/11/30 07:15:02;;;;;;;2.25;1.60;;;16.70;63.80;;;;;;5035420;28;20034;-31
2021/11/30 07:17:28;;;;;;;2.33;1.35;;;16.80;63.80;;;;;;5036192;28;20017;-25
2021/11/30 07:19:54;;;;;;;1.58;1.20;;;16.80;63.80;;;;;;5038167;28;20666;-22
2021/11/30 07:22:20;;;;;;;1.90;1.50;;;16.80;63.70;;;;;;5037953;28;20026;-24
2021/11/30 07:24:46;;;;;;;1.42;1.13;;;16.80;63.60;;;;;;5037708;28;20041;-25
2021/11/30 07:27:11;;;;;;;1.42;1.20;;;16.70;63.60;;;;;;5057592;28;20029;-24
2021/11/30 07:29:37;;;;;;;1.38;1.27;;;16.70;63.50;;;;;;5038385;28;20084;-29
2021/11/30 07:32:03;;;;;;;1.52;1.42;;;16.80;63.50;;;;;;5038500;28;20572;-25
2021/11/30 07:34:29;;;;;;;2.55;1.60;;;16.70;63.40;;;;;;5039069;28;20378;-26
2021/11/30 07:36:55;;;;;;;1.40;1.13;;;16.80;63.30;;;;;;5029214;28;20459;-21
2021/11/30 07:39:21;;;;;;;1.58;1.27;;;16.70;63.20;;;;;;5024842;28;20697;-25
2021/11/30 07:41:46;;;;;;;2.83;1.40;;;16.70;63.20;;;;;;5025785;28;20085;-24
2021/11/30 07:44:12;;;;;;;1.85;1.30;;;16.80;63.20;;;;;;5018688;28;20475;-27
2021/11/30 07:46:38;;;;;;;1.20;1.10;;;16.70;63.10;;;;;;5018381;28;20025;-22
2021/11/30 07:49:04;;;;;;;2.35;1.17;;;16.80;63.00;;;;;;5036154;28;20042;-29
2021/11/30 07:51:31;;;;;;;2.35;1.00;;;16.80;63.00;;;;;;5034705;28;20042;-24
2021/11/30 07:53:57;;;;;;;1.38;1.27;;;16.80;62.90;;;;;;5036082;28;20026;-28
2021/11/30 07:56:23;;;;;;;1.67;1.20;;;16.70;62.80;;;;;;5037214;28;20686;-25
2021/11/30 07:58:48;;;;;;;1.20;1.10;;;16.70;62.80;;;;;;5037566;28;20089;-23
2021/11/30 08:01:15;;;;;;;2.55;1.10;;;16.70;62.80;;;;;;5036193;28;20053;-26
2021/11/30 08:03:41;;;;;;;2.47;1.10;;;16.70;62.80;;;;;;5038200;28;20037;-27
2021/11/30 08:06:06;;;;;;;1.00;0.90;;;16.70;62.70;;;;;;5038332;28;20445;-28
2021/11/30 08:08:32;;;;;;;1.42;1.33;;;16.70;62.70;;;;;;5037302;28;20049;-28
2021/11/30 08:10:58;;;;;;;1.80;1.15;;;16.70;62.60;;;;;;5037944;28;20026;-23
2021/11/30 08:13:24;;;;;;;1.17;0.95;;;16.70;62.50;;;;;;5037080;28;20041;-26
2021/11/30 08:15:49;;;;;;;1.20;1.10;;;16.70;62.50;;;;;;5036590;28;20113;-25
2021/11/30 08:18:15;;;;;;;3.03;1.13;;;16.70;62.50;;;;;;5036197;28;20025;-23
2021/11/30 08:20:40;;;;;;;0.88;0.77;;;16.70;62.50;;;;;;5036274;28;20689;-22
2021/11/30 08:23:07;;;;;;;1.00;0.90;;;16.70;62.40;;;;;;5036355;28;20028;-25
2021/11/30 08:25:33;;;;;;;1.30;1.10;;;16.70;62.40;;;;;;5018381;28;20021;-27
2021/11/30 08:27:59;;;;;;;1.40;1.30;;;16.70;62.30;;;;;;5016969;28;20038;-23
2021/11/30 08:30:24;;;;;;;2.08;0.88;;;16.70;62.30;;;;;;5018256;28;20052;-25
2021/11/30 08:32:50;;;;;;;1.67;1.00;;;16.70;62.30;;;;;;5017913;28;20396;-26
2021/11/30 08:35:16;;;;;;;1.40;0.93;;;16.70;62.30;;;;;;5018306;28;20022;-22
2021/11/30 08:37:42;;;;;;;1.52;0.90;;;16.70;62.10;;;;;;5018316;28;20037;-25
2021/11/30 08:40:08;;;;;;;0.73;0.70;;;16.70;62.10;;;;;;5018101;28;20494;-29
2021/11/30 08:42:34;;;;;;;1.48;1.00;;;16.70;62.10;;;;;;5018235;28;20025;-28
2021/11/30 08:45:00;;;;;;;1.02;0.82;;;16.70;62.10;;;;;;5018049;28;20026;-28
2021/11/30 08:47:26;;;;;;;1.40;1.30;;;16.70;62.10;;;;;;5017601;28;20056;-23
2021/11/30 08:49:52;;;;;;;1.42;0.73;;;16.70;62.10;;;;;;5022390;28;20077;-25
2021/11/30 08:52:21;;;;;;;0.80;0.70;;;16.70;62.00;;;;;;5037578;28;20025;-21
2021/11/30 08:54:47;;;;;;;1.10;1.00;;;16.70;62.00;;;;;;5037492;28;20023;-26
2021/11/30 08:57:13;;;;;;;0.90;0.90;;;16.80;62.00;;;;;;5037374;28;20032;-24
2021/11/30 08:59:39;;;;;;;1.25;1.10;;;16.70;61.90;;;;;;5037154;28;20022;-21
2021/11/30 09:02:06;;;;;;;0.75;0.75;;;16.70;61.90;;;;;;5037354;28;20028;-23
2021/11/30 09:04:31;;;;;;;1.17;0.95;;;16.70;61.90;;;;;;5037516;28;20026;-24
2021/11/30 09:06:57;;;;;;;0.93;0.88;;;16.80;61.80;;;;;;5037414;28;20029;-25
2021/11/30 09:09:23;;;;;;;1.10;0.90;;;16.70;61.80;;;;;;5037295;28;20026;-26
2021/11/30 09:11:48;;;;;;;0.85;0.85;;;16.70;61.70;;;;;;5037314;28;20443;-25
2021/11/30 09:14:19;;;;;;;1.10;0.80;;;16.70;61.70;;;;;;5037370;28;20505;-22
2021/11/30 09:16:45;;;;;;;0.90;0.80;;;16.70;61.70;;;;;;5037236;28;20040;-24
2021/11/30 09:19:10;;;;;;;0.70;0.70;;;16.70;61.70;;;;;;5037023;28;20025;-24
2021/11/30 09:21:36;;;;;;;0.82;0.82;;;16.70;61.60;;;;;;5037127;28;20478;-29
2021/11/30 09:24:01;;;;;;;0.73;0.73;;;16.70;61.60;;;;;;5036840;28;20049;-29
2021/11/30 09:26:27;;;;;;;0.60;0.60;;;16.70;61.60;;;;;;5036541;28;20025;-23
2021/11/30 09:28:53;;;;;;;1.15;0.90;;;16.70;61.50;;;;;;5037045;28;20025;-24
2021/11/30 09:31:18;;;;;;;0.90;0.90;;;16.70;61.50;;;;;;5036766;28;20037;-24
2021/11/30 09:33:44;;;;;;;0.90;0.90;;;16.80;61.50;;;;;;5036819;28;20112;-27
2021/11/30 09:36:10;;;;;;;0.88;0.82;;;16.70;61.50;;;;;;5036821;28;20390;-29
2021/11/30 09:38:36;;;;;;;0.63;0.63;;;16.70;61.50;;;;;;5036935;28;20037;-23
2021/11/30 09:41:03;;;;;;;0.80;0.80;;;16.70;61.50;;;;;;5037021;28;20021;-21
2021/11/30 09:43:29;;;;;;;0.75;0.75;;;16.70;61.40;;;;;;5036834;28;20418;-23
2021/11/30 09:45:55;;;;;;;0.70;0.70;;;16.80;61.30;;;;;;5037005;28;20662;-26
2021/11/30 09:48:21;;;;;;;0.65;0.65;;;16.70;61.30;;;;;;5036453;28;20064;-25
2021/11/30 09:50:47;;;;;;;0.77;0.47;;;16.70;61.30;;;;;;5036376;28;20434;-23
2021/11/30 09:53:13;;;;;;;0.60;0.60;;;16.70;61.30;;;;;;5036827;28;20063;-31
2021/11/30 09:55:41;;;;;;;0.75;0.70;;;16.70;61.20;;;;;;5036609;28;20018;-28
2021/11/30 09:58:06;;;;;;;0.70;0.70;;;16.70;61.20;;;;;;5041773;28;20080;-25
2021/11/30 10:00:35;;;;;;;1.40;0.73;;;16.70;61.20;;;;;;5056550;28;20025;-26
2021/11/30 10:03:00;;;;;;;0.68;0.68;;;16.80;61.30;;;;;;5056454;28;20032;-23
2021/11/30 10:05:26;;;;;;;0.73;0.70;;;16.70;61.20;;;;;;5056197;28;20490;-26
2021/11/30 10:07:53;;;;;;;0.70;0.70;;;16.70;61.10;;;;;;5056625;28;20032;-26
2021/11/30 10:10:20;;;;;;;0.73;0.73;;;16.70;61.10;;;;;;5056574;28;20036;-22
2021/11/30 10:12:54;;;;;;;0.50;0.50;;;16.80;61.20;;;;;;5056571;28;20107;-26
2021/11/30 10:15:19;;;;;;;0.63;0.52;;;16.70;61.10;;;;;;5056364;28;20517;-24
2021/11/30 10:17:45;;;;;;;0.60;0.57;;;16.70;61.20;;;;;;5056245;28;20083;-26
2021/11/30 10:20:12;;;;;;;0.63;0.60;;;16.70;61.10;;;;;;5056280;28;20513;-25
2021/11/30 10:22:39;;;;;;;0.50;0.50;;;16.80;61.10;;;;;;5056522;28;20425;-21
2021/11/30 10:25:24;;;;;;;0.60;0.60;;;16.80;61.00;;;;;;5056546;28;20029;-27
2021/11/30 10:27:58;;;;;;;0.77;0.77;;;16.70;61.00;;;;;;5056183;28;20100;-26
2021/11/30 10:30:25;;;;;;;1.00;0.70;;;16.70;61.00;;;;;;5055272;28;20508;-23
2021/11/30 10:32:51;;;;;;;0.60;0.60;;;16.70;61.00;;;;;;5056060;28;20650;-23
2021/11/30 10:35:18;;;;;;;0.70;0.70;;;16.80;61.00;;;;;;5056081;28;20401;-25
2021/11/30 10:37:44;;;;;;;0.60;0.60;;;16.80;61.00;;;;;;5057968;28;20074;-30
2021/11/30 10:40:15;;;;;;;0.80;0.80;;;16.80;60.90;;;;;;5060255;28;20033;-25
2021/11/30 10:42:45;;;;;;;0.80;0.80;;;16.70;60.90;;;;;;5060170;28;20071;-24
2021/11/30 10:45:10;;;;;;;0.50;0.50;;;16.70;60.90;;;;;;5059962;28;20056;-22
2021/11/30 10:47:36;;;;;;;0.65;0.65;;;16.80;60.90;;;;;;5059588;28;20041;-27
2021/11/30 10:50:11;;;;;;;0.52;0.52;;;16.70;60.80;;;;;;5055415;28;20057;-22
2021/11/30 10:52:40;;;;;;;0.52;0.52;;;16.70;60.80;;;;;;5034885;28;20091;-27
2021/11/30 10:55:07;;;;;;;0.45;0.45;;;16.80;60.90;;;;;;5038567;28;20022;-27
2021/11/30 10:57:33;;;;;;;0.50;0.50;;;16.70;60.80;;;;;;5040215;28;20029;-24
2021/11/30 11:00:23;;;;;;;0.73;0.73;;;16.70;60.80;;;;;;5059698;28;20025;-29
2021/11/30 11:02:53;;;;;;;0.70;0.70;;;16.70;60.80;;;;;;5059472;28;20378;-27
2021/11/30 11:05:33;;;;;;;0.50;0.50;;;16.70;60.80;;;;;;5059517;28;20020;-25
2021/11/30 11:08:11;;;;;;;0.63;0.63;;;16.80;60.70;;;;;;5059661;28;20017;-21
2021/11/30 11:10:44;;;;;;;0.57;0.52;;;16.70;60.80;;;;;;5059570;28;20113;-24
2021/11/30 11:13:29;;;;;;;0.75;0.75;;;16.80;60.70;;;;;;5059429;28;20094;-26
2021/11/30 11:15:56;;;;;;;0.60;0.60;;;16.70;60.60;;;;;;5059221;28;20493;-23
2021/11/30 11:18:29;;;;;;;0.60;0.60;;;16.80;60.70;;;;;;5059490;28;20025;-24
2021/11/30 11:21:16;;;;;;;0.50;0.50;;;16.80;60.60;;;;;;5059401;28;20100;-22
2021/11/30 11:24:06;;;;;;;1.33;0.70;;;16.80;60.50;;;;;;5059221;28;20039;-30
2021/11/30 11:26:48;;;;;;;0.60;0.60;;;16.80;60.50;;;;;;5050930;28;20045;-25
2021/11/30 11:29:25;;;;;;;0.50;0.50;;;16.80;60.50;;;;;;5059230;28;20481;-26
2021/11/30 11:31:52;;;;;;;0.63;0.63;;;16.80;60.50;;;;;;5058958;28;20033;-23
2021/11/30 11:34:19;;;;;;;0.47;0.47;;;16.80;60.50;;;;;;5041237;28;20402;-24
2021/11/30 11:36:46;;;;;;;0.50;0.50;;;16.80;60.40;;;;;;5038409;28;20520;-22
2021/11/30 11:39:14;;;;;;;0.60;0.57;;;16.80;60.60;;;;;;5037590;28;20529;-25
2021/11/30 11:41:40;;;;;;;1.95;0.80;;;16.80;60.40;;;;;;5038658;28;20052;-23
2021/11/30 11:44:05;;;;;;;1.27;0.70;;;16.80;60.30;;;;;;5038705;28;20030;-30
2021/11/30 11:46:37;;;;;;;0.60;0.57;;;16.80;60.30;;;;;;5036331;28;20041;-27
2021/11/30 11:49:04;;;;;;;0.80;0.50;;;16.80;60.40;;;;;;5036282;28;20110;-25
2021/11/30 11:51:42;;;;;;;0.47;0.40;;;16.80;60.60;;;;;;5033205;28;20140;-26
2021/11/30 11:54:21;;;;;;;0.93;0.60;;;16.80;60.70;;;;;;5036496;28;20030;-26
2021/11/30 11:57:14;;;;;;;1.17;0.93;;;16.80;61.00;;;;;;5036781;28;20033;-25
2021/11/30 11:59:43;;;;;;;0.50;0.50;;;16.80;60.90;;;;;;5037707;28;20112;-29
2021/11/30 12:02:24;;;;;;;0.75;0.70;;;16.80;61.70;;;;;;5035005;28;20079;-26
2021/11/30 12:04:53;;;;;;;0.70;0.70;;;16.80;61.70;;;;;;5036171;28;20025;-27
2021/11/30 12:07:20;;;;;;;0.40;0.40;;;16.80;61.40;;;;;;5035298;28;20021;-26
2021/11/30 12:09:46;;;;;;;0.60;0.60;;;16.80;61.60;;;;;;5036781;28;20021;-28
2021/11/30 12:12:14;;;;;;;1.58;0.75;;;16.80;61.70;;;;;;5036006;28;20010;-25
2021/11/30 12:14:45;;;;;;;1.67;0.60;;;16.90;61.70;;;;;;5037191;28;20014;-24
2021/11/30 12:17:23;;;;;;;0.60;0.60;;;16.90;61.50;;;;;;5036934;28;20099;-26
2021/11/30 12:20:05;;;;;;;1.08;0.55;;;16.90;61.60;;;;;;5034188;28;20018;-23
2021/11/30 12:23:06;;;;;;;0.50;0.50;;;16.90;61.70;;;;;;5032370;28;20048;-35
2021/11/30 12:25:42;;;;;;;0.50;0.50;;;16.90;61.50;;;;;;4988938;28;20022;-29
2021/11/30 12:28:09;;;;;;;0.60;0.60;;;16.90;61.50;;;;;;5030908;28;20113;-21
2021/11/30 12:30:48;;;;;;;0.50;0.50;;;16.90;61.50;;;;;;5036930;28;20116;-26
2021/11/30 12:33:24;;;;;;;0.50;0.50;;;16.90;61.50;;;;;;5036094;28;20029;-23
2021/11/30 12:35:57;;;;;;;0.57;0.57;;;16.90;61.50;;;;;;5032642;28;20104;-26
2021/11/30 12:38:33;;;;;;;1.25;0.80;;;16.90;61.50;;;;;;5026284;28;20030;-23
2021/11/30 12:41:00;;;;;;;0.60;0.57;;;16.90;61.40;;;;;;5028101;28;20029;-26
2021/11/30 12:43:28;;;;;;;0.50;0.50;;;16.90;61.30;;;;;;5024621;28;20030;-25
2021/11/30 12:46:00;;;;;;;0.55;0.55;;;16.90;61.30;;;;;;5025188;28;20028;-31
2021/11/30 12:48:35;;;;;;;0.70;0.40;;;16.90;61.50;;;;;;5035931;28;20053;-21
2021/11/30 12:51:27;;;;;;;0.90;0.60;;;16.90;61.40;;;;;;5037130;28;20021;-27
2021/11/30 12:53:53;;;;;;;0.77;0.77;;;16.80;61.20;;;;;;5035324;28;20045;-22
2021/11/30 12:56:44;;;;;;;1.98;0.50;;;16.90;61.20;;;;;;5037364;28;20045;-27
2021/11/30 12:59:11;;;;;;;0.85;0.47;;;16.90;61.20;;;;;;5030598;28;20030;-21
2021/11/30 13:01:36;;;;;;;0.95;0.65;;;16.90;61.20;;;;;;5036711;28;20052;-24